KCN09 WAAA-WARA
Flight info
| Callsign | KCN09 |
|---|---|
| Flight time | 1h 25m |
| Altitude | 34000 |
| Route | ENDOG W32 SBR |
| Aircraft | B738/M-SDE2E3FGHIRWXY/LB1 |
Departure
| Time | 2026-04-26 03:37 |
|---|---|
| Airport | Sultan Hasanuddin International Airport (WAAA) |
Arrival
| Time | 2026-04-26 05:02 |
|---|---|
| Airport | Abdul Rachman Saleh Airport (WARA) |
| Time | Latitude | Longitude | Altitude | Speed | Heading |
|---|---|---|---|---|---|
| 2026-04-26 03:06 | -5.06080 | 119.54574 | 64 ft | 0 kts | 310° |
| 2026-04-26 03:16 | -5.06088 | 119.54584 | 64 ft | 2 kts | 310° |
| 2026-04-26 03:17 | -5.06098 | 119.54595 | 64 ft | 1 kts | 310° |
| 2026-04-26 03:17 | -5.06105 | 119.54603 | 64 ft | 2 kts | 295° |
| 2026-04-26 03:17 | -5.06108 | 119.54617 | 64 ft | 2 kts | 264° |
| 2026-04-26 03:17 | -5.06103 | 119.54632 | 64 ft | 2 kts | 232° |
| 2026-04-26 03:18 | -5.06098 | 119.54636 | 64 ft | 1 kts | 218° |
| 2026-04-26 03:18 | -5.06094 | 119.54640 | 64 ft | 0 kts | 219° |
| 2026-04-26 03:25 | -5.06100 | 119.54636 | 64 ft | 2 kts | 219° |
| 2026-04-26 03:25 | -5.06115 | 119.54623 | 64 ft | 3 kts | 217° |
| 2026-04-26 03:25 | -5.06138 | 119.54607 | 64 ft | 4 kts | 214° |
| 2026-04-26 03:26 | -5.06162 | 119.54588 | 64 ft | 5 kts | 221° |
| 2026-04-26 03:26 | -5.06204 | 119.54548 | 64 ft | 6 kts | 208° |
| 2026-04-26 03:26 | -5.06237 | 119.54557 | 64 ft | 5 kts | 102° |
| 2026-04-26 03:26 | -5.06241 | 119.54599 | 64 ft | 6 kts | 90° |
| 2026-04-26 03:27 | -5.06236 | 119.54642 | 64 ft | 6 kts | 78° |
| 2026-04-26 03:27 | -5.06218 | 119.54715 | 64 ft | 15 kts | 81° |
| 2026-04-26 03:27 | -5.06208 | 119.54826 | 64 ft | 16 kts | 86° |
| 2026-04-26 03:27 | -5.06199 | 119.54936 | 65 ft | 15 kts | 79° |
| 2026-04-26 03:28 | -5.06180 | 119.55045 | 65 ft | 15 kts | 82° |
| 2026-04-26 03:28 | -5.06177 | 119.55150 | 65 ft | 15 kts | 116° |
| 2026-04-26 03:28 | -5.06238 | 119.55231 | 65 ft | 14 kts | 131° |
| 2026-04-26 03:28 | -5.06306 | 119.55310 | 65 ft | 14 kts | 130° |
| 2026-04-26 03:29 | -5.06372 | 119.55391 | 66 ft | 15 kts | 129° |
| 2026-04-26 03:29 | -5.06432 | 119.55470 | 66 ft | 12 kts | 139° |
| 2026-04-26 03:29 | -5.06477 | 119.55514 | 66 ft | 13 kts | 134° |
| 2026-04-26 03:29 | -5.06575 | 119.55619 | 66 ft | 19 kts | 129° |
| 2026-04-26 03:30 | -5.06642 | 119.55678 | 66 ft | 9 kts | 175° |
| 2026-04-26 03:30 | -5.06705 | 119.55656 | 66 ft | 10 kts | 206° |
| 2026-04-26 03:30 | -5.06794 | 119.55608 | 66 ft | 18 kts | 210° |
| 2026-04-26 03:30 | -5.06933 | 119.55537 | 66 ft | 25 kts | 210° |
| 2026-04-26 03:31 | -5.07058 | 119.55455 | 66 ft | 23 kts | 210° |
| 2026-04-26 03:31 | -5.07207 | 119.55367 | 66 ft | 27 kts | 211° |
| 2026-04-26 03:31 | -5.07403 | 119.55252 | 65 ft | 34 kts | 211° |
| 2026-04-26 03:31 | -5.07607 | 119.55135 | 65 ft | 33 kts | 209° |
| 2026-04-26 03:32 | -5.07811 | 119.55019 | 65 ft | 33 kts | 209° |
| 2026-04-26 03:32 | -5.08011 | 119.54904 | 65 ft | 33 kts | 210° |
| 2026-04-26 03:32 | -5.08204 | 119.54791 | 64 ft | 32 kts | 210° |
| 2026-04-26 03:32 | -5.08400 | 119.54677 | 64 ft | 32 kts | 211° |
| 2026-04-26 03:33 | -5.08595 | 119.54566 | 64 ft | 32 kts | 209° |
| 2026-04-26 03:33 | -5.08779 | 119.54458 | 64 ft | 31 kts | 211° |
| 2026-04-26 03:33 | -5.08970 | 119.54349 | 64 ft | 31 kts | 212° |
| 2026-04-26 03:33 | -5.09103 | 119.54281 | 63 ft | 12 kts | 188° |
| 2026-04-26 03:34 | -5.09153 | 119.54295 | 64 ft | 6 kts | 142° |
| 2026-04-26 03:34 | -5.09164 | 119.54309 | 64 ft | 0 kts | 120° |
| 2026-04-26 03:34 | -5.09169 | 119.54317 | 64 ft | 2 kts | 120° |
| 2026-04-26 03:35 | -5.09180 | 119.54336 | 64 ft | 3 kts | 120° |
| 2026-04-26 03:35 | -5.09194 | 119.54361 | 64 ft | 4 kts | 114° |
| 2026-04-26 03:35 | -5.09202 | 119.54392 | 64 ft | 4 kts | 100° |
| 2026-04-26 03:35 | -5.09194 | 119.54421 | 64 ft | 4 kts | 48° |
| 2026-04-26 03:36 | -5.09167 | 119.54439 | 64 ft | 4 kts | 30° |
| 2026-04-26 03:36 | -5.09113 | 119.54470 | 64 ft | 24 kts | 30° |
| 2026-04-26 03:36 | -5.08650 | 119.54723 | 65 ft | 124 kts | 32° |
| 2026-04-26 03:36 | -5.07716 | 119.55282 | 337 ft | 177 kts | 29° |
| 2026-04-26 03:37 | -5.06690 | 119.55918 | 1446 ft | 186 kts | 27° |
| 2026-04-26 03:37 | -5.05420 | 119.56202 | 2434 ft | 201 kts | 359° |
| 2026-04-26 03:37 | -5.03998 | 119.56039 | 3361 ft | 221 kts | 355° |
| 2026-04-26 03:37 | -5.02408 | 119.55919 | 4440 ft | 235 kts | 359° |
| 2026-04-26 03:38 | -5.00770 | 119.55879 | 5472 ft | 250 kts | 359° |
| 2026-04-26 03:38 | -4.99170 | 119.55656 | 6374 ft | 267 kts | 344° |
| 2026-04-26 03:38 | -4.97613 | 119.54789 | 7284 ft | 285 kts | 319° |
| 2026-04-26 03:39 | -4.95763 | 119.51419 | 9511 ft | 301 kts | 283° |
| 2026-04-26 03:39 | -4.95493 | 119.49311 | 10638 ft | 309 kts | 273° |
| 2026-04-26 03:39 | -4.95458 | 119.47102 | 11484 ft | 327 kts | 269° |
| 2026-04-26 03:39 | -4.95477 | 119.44791 | 12254 ft | 345 kts | 269° |
| 2026-04-26 03:40 | -4.95474 | 119.42328 | 13081 ft | 360 kts | 270° |
| 2026-04-26 03:40 | -4.95442 | 119.39798 | 13636 ft | 371 kts | 270° |
| 2026-04-26 03:40 | -4.95389 | 119.37211 | 13831 ft | 370 kts | 271° |
| 2026-04-26 03:40 | -4.95329 | 119.34786 | 13858 ft | 365 kts | 271° |
| 2026-04-26 03:41 | -4.95263 | 119.32336 | 13869 ft | 364 kts | 271° |
| 2026-04-26 03:41 | -4.95191 | 119.29741 | 13871 ft | 363 kts | 271° |
| 2026-04-26 03:41 | -4.95125 | 119.27262 | 13857 ft | 364 kts | 271° |
| 2026-04-26 03:41 | -4.95058 | 119.24698 | 13852 ft | 366 kts | 271° |
| 2026-04-26 03:42 | -4.94992 | 119.22141 | 13855 ft | 365 kts | 271° |
| 2026-04-26 03:42 | -4.94929 | 119.19627 | 13853 ft | 366 kts | 271° |
| 2026-04-26 03:42 | -4.94865 | 119.17056 | 13855 ft | 366 kts | 271° |
| 2026-04-26 03:42 | -4.94801 | 119.14537 | 13854 ft | 366 kts | 271° |
| 2026-04-26 03:43 | -4.94737 | 119.11958 | 13850 ft | 365 kts | 271° |
| 2026-04-26 03:43 | -4.94673 | 119.09425 | 13847 ft | 365 kts | 271° |
| 2026-04-26 03:43 | -4.94609 | 119.06941 | 13848 ft | 367 kts | 271° |
| 2026-04-26 03:43 | -4.94544 | 119.04366 | 13839 ft | 364 kts | 271° |
| 2026-04-26 03:44 | -4.94480 | 119.01825 | 13851 ft | 365 kts | 271° |
| 2026-04-26 03:44 | -4.94415 | 118.99289 | 13844 ft | 365 kts | 271° |
| 2026-04-26 03:44 | -4.94349 | 118.96709 | 13847 ft | 364 kts | 271° |
| 2026-04-26 03:44 | -4.94284 | 118.94162 | 13843 ft | 365 kts | 271° |
| 2026-04-26 03:45 | -4.94219 | 118.91592 | 13843 ft | 364 kts | 271° |
| 2026-04-26 03:45 | -4.94153 | 118.89045 | 13844 ft | 364 kts | 271° |
| 2026-04-26 03:45 | -4.94088 | 118.86500 | 13842 ft | 365 kts | 271° |
| 2026-04-26 03:45 | -4.94022 | 118.83912 | 13844 ft | 365 kts | 271° |
| 2026-04-26 03:46 | -4.93956 | 118.81365 | 13843 ft | 366 kts | 271° |
| 2026-04-26 03:46 | -4.93891 | 118.78799 | 13842 ft | 365 kts | 271° |
| 2026-04-26 03:46 | -4.93967 | 118.76257 | 13841 ft | 364 kts | 263° |
| 2026-04-26 03:47 | -4.95956 | 118.71585 | 14724 ft | 375 kts | 231° |
| 2026-04-26 03:47 | -4.97590 | 118.69543 | 15886 ft | 375 kts | 230° |
| 2026-04-26 03:47 | -4.99214 | 118.67522 | 16909 ft | 378 kts | 230° |
| 2026-04-26 03:47 | -5.00875 | 118.65442 | 17761 ft | 385 kts | 231° |
| 2026-04-26 03:48 | -5.02564 | 118.63320 | 18644 ft | 391 kts | 231° |
| 2026-04-26 03:48 | -5.04247 | 118.61201 | 19534 ft | 394 kts | 231° |
| 2026-04-26 03:48 | -5.05969 | 118.59034 | 20362 ft | 399 kts | 231° |
| 2026-04-26 03:48 | -5.07710 | 118.56842 | 21174 ft | 403 kts | 231° |
| 2026-04-26 03:49 | -5.09451 | 118.54651 | 21960 ft | 407 kts | 231° |
| 2026-04-26 03:49 | -5.11209 | 118.52438 | 22723 ft | 412 kts | 231° |
| 2026-04-26 03:49 | -5.13015 | 118.50166 | 23430 ft | 417 kts | 231° |
| 2026-04-26 03:49 | -5.14830 | 118.47880 | 24170 ft | 422 kts | 231° |
| 2026-04-26 03:50 | -5.16656 | 118.45583 | 24860 ft | 427 kts | 231° |
| 2026-04-26 03:50 | -5.18513 | 118.43243 | 25487 ft | 433 kts | 231° |
| 2026-04-26 03:50 | -5.20407 | 118.40859 | 26219 ft | 436 kts | 231° |
| 2026-04-26 03:50 | -5.22316 | 118.38488 | 26827 ft | 442 kts | 230° |
| 2026-04-26 03:51 | -5.24343 | 118.36167 | 27468 ft | 445 kts | 225° |
| 2026-04-26 03:51 | -5.26629 | 118.34035 | 28089 ft | 448 kts | 219° |
| 2026-04-26 03:51 | -5.29060 | 118.32080 | 28672 ft | 452 kts | 216° |
| 2026-04-26 03:51 | -5.31586 | 118.30198 | 29451 ft | 451 kts | 214° |
| 2026-04-26 03:52 | -5.34103 | 118.28380 | 30313 ft | 448 kts | 214° |
| 2026-04-26 03:52 | -5.36629 | 118.26568 | 31049 ft | 448 kts | 214° |
| 2026-04-26 03:52 | -5.39149 | 118.24751 | 31777 ft | 447 kts | 214° |
| 2026-04-26 03:52 | -5.41665 | 118.22923 | 32434 ft | 448 kts | 214° |
| 2026-04-26 03:53 | -5.44218 | 118.21053 | 33248 ft | 446 kts | 214° |
| 2026-04-26 03:53 | -5.46726 | 118.19205 | 33757 ft | 448 kts | 214° |
| 2026-04-26 03:53 | -5.49231 | 118.17354 | 33836 ft | 451 kts | 214° |
| 2026-04-26 03:54 | -5.54050 | 118.13555 | 33842 ft | 443 kts | 222° |
| 2026-04-26 03:54 | -5.56076 | 118.11176 | 33844 ft | 444 kts | 235° |
| 2026-04-26 03:54 | -5.57507 | 118.08539 | 33849 ft | 445 kts | 245° |
| 2026-04-26 03:55 | -5.59717 | 118.02676 | 33842 ft | 447 kts | 251° |
| 2026-04-26 03:55 | -5.61677 | 117.96826 | 33842 ft | 447 kts | 251° |
| 2026-04-26 03:56 | -5.63634 | 117.90936 | 33838 ft | 449 kts | 251° |
| 2026-04-26 03:56 | -5.65639 | 117.84971 | 33831 ft | 448 kts | 251° |
| 2026-04-26 03:57 | -5.67644 | 117.79051 | 33828 ft | 447 kts | 251° |
| 2026-04-26 03:57 | -5.69661 | 117.73125 | 33826 ft | 446 kts | 251° |
| 2026-04-26 03:58 | -5.71676 | 117.67212 | 33836 ft | 446 kts | 251° |
| 2026-04-26 03:58 | -5.73698 | 117.61284 | 33834 ft | 446 kts | 251° |
| 2026-04-26 03:59 | -5.75707 | 117.55394 | 33838 ft | 447 kts | 251° |
| 2026-04-26 03:59 | -5.77739 | 117.49435 | 33839 ft | 448 kts | 251° |
| 2026-04-26 04:00 | -5.79771 | 117.43476 | 33841 ft | 446 kts | 251° |
| 2026-04-26 04:00 | -5.81780 | 117.37582 | 33842 ft | 446 kts | 251° |
| 2026-04-26 04:01 | -5.83798 | 117.31655 | 33842 ft | 445 kts | 251° |
| 2026-04-26 04:01 | -5.85802 | 117.25767 | 33840 ft | 445 kts | 251° |
| 2026-04-26 04:02 | -5.87820 | 117.19840 | 33843 ft | 446 kts | 251° |
| 2026-04-26 04:02 | -5.89819 | 117.13986 | 33842 ft | 446 kts | 251° |
| 2026-04-26 04:03 | -5.91818 | 117.08141 | 33841 ft | 446 kts | 251° |
| 2026-04-26 04:03 | -5.93812 | 117.02305 | 33841 ft | 445 kts | 251° |
| 2026-04-26 04:04 | -5.95828 | 116.96399 | 33841 ft | 443 kts | 251° |
| 2026-04-26 04:04 | -5.97838 | 116.90509 | 33846 ft | 444 kts | 251° |
| 2026-04-26 04:05 | -5.99871 | 116.84547 | 33843 ft | 445 kts | 251° |
| 2026-04-26 04:05 | -6.01862 | 116.78709 | 33844 ft | 445 kts | 251° |
| 2026-04-26 04:06 | -6.03899 | 116.72737 | 33846 ft | 445 kts | 251° |
| 2026-04-26 04:06 | -6.05912 | 116.66839 | 33844 ft | 446 kts | 251° |
| 2026-04-26 04:07 | -6.07901 | 116.61005 | 33850 ft | 445 kts | 251° |
| 2026-04-26 04:07 | -6.09904 | 116.55125 | 33844 ft | 445 kts | 251° |
| 2026-04-26 04:08 | -6.11905 | 116.49248 | 33842 ft | 445 kts | 251° |
| 2026-04-26 04:08 | -6.13879 | 116.43448 | 33842 ft | 445 kts | 251° |
| 2026-04-26 04:09 | -6.15883 | 116.37557 | 33838 ft | 446 kts | 251° |
| 2026-04-26 04:09 | -6.17884 | 116.31670 | 33836 ft | 446 kts | 251° |
| 2026-04-26 04:10 | -6.19861 | 116.25887 | 33840 ft | 446 kts | 251° |
| 2026-04-26 04:10 | -6.21808 | 116.20203 | 33836 ft | 445 kts | 251° |
| 2026-04-26 04:11 | -6.23838 | 116.14276 | 33833 ft | 445 kts | 251° |
| 2026-04-26 04:11 | -6.25792 | 116.08567 | 33830 ft | 446 kts | 251° |
| 2026-04-26 04:12 | -6.27760 | 116.02808 | 33840 ft | 446 kts | 251° |
| 2026-04-26 04:12 | -6.29753 | 115.96973 | 33843 ft | 445 kts | 251° |
| 2026-04-26 04:13 | -6.31769 | 115.91067 | 33844 ft | 445 kts | 251° |
| 2026-04-26 04:13 | -6.33714 | 115.85372 | 33843 ft | 445 kts | 251° |
| 2026-04-26 04:14 | -6.35664 | 115.79659 | 33844 ft | 445 kts | 251° |
| 2026-04-26 04:15 | -6.39554 | 115.68261 | 33843 ft | 445 kts | 251° |
| 2026-04-26 04:15 | -6.41551 | 115.62404 | 33844 ft | 446 kts | 251° |
| 2026-04-26 04:16 | -6.43557 | 115.56515 | 33843 ft | 446 kts | 251° |
| 2026-04-26 04:16 | -6.45563 | 115.50628 | 33843 ft | 446 kts | 251° |
| 2026-04-26 04:17 | -6.47587 | 115.44679 | 33842 ft | 445 kts | 251° |
| 2026-04-26 04:17 | -6.49615 | 115.38715 | 33843 ft | 445 kts | 251° |
| 2026-04-26 04:18 | -6.51620 | 115.32824 | 33844 ft | 445 kts | 251° |
| 2026-04-26 04:18 | -6.53642 | 115.26879 | 33842 ft | 445 kts | 251° |
| 2026-04-26 04:19 | -6.55650 | 115.20972 | 33843 ft | 445 kts | 251° |
| 2026-04-26 04:19 | -6.57662 | 115.15054 | 33843 ft | 445 kts | 251° |
| 2026-04-26 04:20 | -6.59674 | 115.09163 | 33843 ft | 445 kts | 251° |
| 2026-04-26 04:20 | -6.61677 | 115.03312 | 33844 ft | 446 kts | 251° |
| 2026-04-26 04:21 | -6.63714 | 114.97362 | 33843 ft | 445 kts | 251° |
| 2026-04-26 04:21 | -6.65708 | 114.91533 | 33840 ft | 444 kts | 251° |
| 2026-04-26 04:22 | -6.67731 | 114.85605 | 33842 ft | 445 kts | 251° |
| 2026-04-26 04:22 | -6.69744 | 114.79707 | 33843 ft | 443 kts | 251° |
| 2026-04-26 04:23 | -6.71760 | 114.73795 | 33844 ft | 444 kts | 251° |
| 2026-04-26 04:23 | -6.73783 | 114.67863 | 33841 ft | 442 kts | 251° |
| 2026-04-26 04:24 | -6.75788 | 114.61981 | 33840 ft | 443 kts | 251° |
| 2026-04-26 04:24 | -6.77813 | 114.56039 | 33834 ft | 445 kts | 251° |
| 2026-04-26 04:25 | -6.79846 | 114.50073 | 33827 ft | 444 kts | 251° |
| 2026-04-26 04:25 | -6.81852 | 114.44181 | 33772 ft | 446 kts | 251° |
| 2026-04-26 04:25 | -6.82855 | 114.41234 | 33377 ft | 449 kts | 251° |
| 2026-04-26 04:26 | -6.83872 | 114.38249 | 32917 ft | 448 kts | 251° |
| 2026-04-26 04:26 | -6.84890 | 114.35259 | 32465 ft | 446 kts | 251° |
| 2026-04-26 04:26 | -6.85862 | 114.32399 | 32075 ft | 446 kts | 251° |
| 2026-04-26 04:26 | -6.86839 | 114.29529 | 31687 ft | 448 kts | 251° |
| 2026-04-26 04:27 | -6.87853 | 114.26547 | 31280 ft | 448 kts | 251° |
| 2026-04-26 04:27 | -6.88877 | 114.23534 | 30871 ft | 448 kts | 251° |
| 2026-04-26 04:27 | -6.89890 | 114.20550 | 30466 ft | 449 kts | 251° |
| 2026-04-26 04:27 | -6.90929 | 114.17488 | 30051 ft | 449 kts | 251° |
| 2026-04-26 04:28 | -6.91945 | 114.14494 | 29646 ft | 448 kts | 251° |
| 2026-04-26 04:28 | -6.92839 | 114.11861 | 29290 ft | 449 kts | 251° |
| 2026-04-26 04:28 | -6.93740 | 114.09208 | 28933 ft | 449 kts | 251° |
| 2026-04-26 04:28 | -6.94984 | 114.05546 | 28441 ft | 450 kts | 251° |
| 2026-04-26 04:29 | -6.95986 | 114.02596 | 28045 ft | 450 kts | 251° |
| 2026-04-26 04:29 | -6.96963 | 113.99719 | 27660 ft | 450 kts | 251° |
| 2026-04-26 04:29 | -6.97988 | 113.96691 | 27254 ft | 451 kts | 251° |
| 2026-04-26 04:29 | -6.98998 | 113.93668 | 26850 ft | 452 kts | 251° |
| 2026-04-26 04:30 | -7.00006 | 113.90627 | 26449 ft | 454 kts | 251° |
| 2026-04-26 04:30 | -7.01001 | 113.87614 | 26054 ft | 455 kts | 251° |
| 2026-04-26 04:30 | -7.01993 | 113.84607 | 25659 ft | 456 kts | 251° |
| 2026-04-26 04:30 | -7.02997 | 113.81561 | 25263 ft | 457 kts | 251° |
| 2026-04-26 04:31 | -7.03990 | 113.78553 | 24871 ft | 457 kts | 251° |
| 2026-04-26 04:31 | -7.05009 | 113.75471 | 24472 ft | 457 kts | 251° |
| 2026-04-26 04:31 | -7.06003 | 113.72463 | 24169 ft | 446 kts | 251° |
| 2026-04-26 04:31 | -7.06969 | 113.69542 | 23919 ft | 432 kts | 251° |
| 2026-04-26 04:32 | -7.07914 | 113.66679 | 23669 ft | 418 kts | 251° |
| 2026-04-26 04:32 | -7.08818 | 113.63937 | 23424 ft | 406 kts | 251° |
| 2026-04-26 04:32 | -7.09703 | 113.61253 | 23181 ft | 397 kts | 251° |
| 2026-04-26 04:32 | -7.10589 | 113.58567 | 22933 ft | 395 kts | 251° |
| 2026-04-26 04:33 | -7.11456 | 113.55936 | 22694 ft | 398 kts | 251° |
| 2026-04-26 04:33 | -7.12298 | 113.53379 | 22462 ft | 397 kts | 250° |
| 2026-04-26 04:33 | -7.13155 | 113.50782 | 22220 ft | 395 kts | 250° |
| 2026-04-26 04:33 | -7.14025 | 113.48147 | 21986 ft | 393 kts | 250° |
| 2026-04-26 04:34 | -7.14894 | 113.45515 | 21746 ft | 392 kts | 250° |
| 2026-04-26 04:34 | -7.15756 | 113.42906 | 21509 ft | 390 kts | 250° |
| 2026-04-26 04:34 | -7.16637 | 113.40241 | 21291 ft | 404 kts | 250° |
| 2026-04-26 04:34 | -7.17539 | 113.37509 | 21045 ft | 400 kts | 250° |
| 2026-04-26 04:35 | -7.18418 | 113.34843 | 20790 ft | 389 kts | 250° |
| 2026-04-26 04:35 | -7.19257 | 113.32295 | 20553 ft | 381 kts | 250° |
| 2026-04-26 04:35 | -7.20090 | 113.29768 | 20321 ft | 383 kts | 250° |
| 2026-04-26 04:35 | -7.20953 | 113.27151 | 20086 ft | 383 kts | 250° |
| 2026-04-26 04:36 | -7.21795 | 113.24601 | 19843 ft | 382 kts | 250° |
| 2026-04-26 04:36 | -7.22632 | 113.22060 | 19609 ft | 381 kts | 250° |
| 2026-04-26 04:36 | -7.23475 | 113.19501 | 19370 ft | 379 kts | 250° |
| 2026-04-26 04:36 | -7.24315 | 113.16950 | 19133 ft | 378 kts | 250° |
| 2026-04-26 04:37 | -7.25153 | 113.14408 | 18890 ft | 376 kts | 250° |
| 2026-04-26 04:37 | -7.25981 | 113.11892 | 18647 ft | 375 kts | 250° |
| 2026-04-26 04:37 | -7.26817 | 113.09351 | 18408 ft | 374 kts | 250° |
| 2026-04-26 04:37 | -7.27643 | 113.06835 | 18169 ft | 372 kts | 250° |
| 2026-04-26 04:38 | -7.28460 | 113.04353 | 17920 ft | 371 kts | 250° |
| 2026-04-26 04:38 | -7.29283 | 113.01849 | 17680 ft | 370 kts | 250° |
| 2026-04-26 04:38 | -7.30097 | 112.99375 | 17444 ft | 369 kts | 250° |
| 2026-04-26 04:38 | -7.30908 | 112.96909 | 17200 ft | 368 kts | 250° |
| 2026-04-26 04:39 | -7.31705 | 112.94479 | 16978 ft | 366 kts | 250° |
| 2026-04-26 04:39 | -7.32514 | 112.92020 | 16759 ft | 366 kts | 250° |
| 2026-04-26 04:39 | -7.33320 | 112.89568 | 16521 ft | 363 kts | 250° |
| 2026-04-26 04:39 | -7.34120 | 112.87135 | 16286 ft | 361 kts | 250° |
| 2026-04-26 04:40 | -7.34915 | 112.84723 | 16059 ft | 360 kts | 250° |
| 2026-04-26 04:40 | -7.35707 | 112.82333 | 15825 ft | 359 kts | 249° |
| 2026-04-26 04:40 | -7.36678 | 112.79999 | 15587 ft | 355 kts | 240° |
| 2026-04-26 04:40 | -7.38210 | 112.78041 | 15345 ft | 348 kts | 217° |
| 2026-04-26 04:41 | -7.40318 | 112.76893 | 15118 ft | 342 kts | 194° |
| 2026-04-26 04:41 | -7.42689 | 112.76515 | 14893 ft | 337 kts | 182° |
| 2026-04-26 04:41 | -7.45045 | 112.76332 | 14641 ft | 336 kts | 182° |
| 2026-04-26 04:41 | -7.47411 | 112.76112 | 14393 ft | 334 kts | 183° |
| 2026-04-26 04:42 | -7.49773 | 112.75864 | 14148 ft | 333 kts | 183° |
| 2026-04-26 04:42 | -7.52095 | 112.75611 | 13910 ft | 333 kts | 184° |
| 2026-04-26 04:42 | -7.54408 | 112.75362 | 13675 ft | 331 kts | 183° |
| 2026-04-26 04:42 | -7.56726 | 112.75116 | 13433 ft | 329 kts | 184° |
| 2026-04-26 04:43 | -7.59046 | 112.74873 | 13192 ft | 329 kts | 183° |
| 2026-04-26 04:43 | -7.61298 | 112.74638 | 12949 ft | 328 kts | 184° |
| 2026-04-26 04:43 | -7.63602 | 112.74397 | 12894 ft | 325 kts | 183° |
| 2026-04-26 04:43 | -7.65907 | 112.74159 | 12911 ft | 328 kts | 184° |
| 2026-04-26 04:44 | -7.68212 | 112.73921 | 12938 ft | 329 kts | 183° |
| 2026-04-26 04:44 | -7.70522 | 112.73682 | 12932 ft | 328 kts | 183° |
| 2026-04-26 04:44 | -7.72817 | 112.73443 | 12930 ft | 328 kts | 183° |
| 2026-04-26 04:44 | -7.75116 | 112.73205 | 12944 ft | 326 kts | 184° |
| 2026-04-26 04:45 | -7.77393 | 112.72965 | 12955 ft | 316 kts | 184° |
| 2026-04-26 04:45 | -7.79537 | 112.72737 | 12978 ft | 303 kts | 183° |
| 2026-04-26 04:45 | -7.81661 | 112.72513 | 12989 ft | 296 kts | 183° |
| 2026-04-26 04:45 | -7.83720 | 112.72302 | 12992 ft | 296 kts | 183° |
| 2026-04-26 04:46 | -7.85790 | 112.72091 | 13003 ft | 296 kts | 183° |
| 2026-04-26 04:46 | -7.87868 | 112.71877 | 12997 ft | 297 kts | 183° |
| 2026-04-26 04:46 | -7.89951 | 112.71658 | 12999 ft | 297 kts | 183° |
| 2026-04-26 04:46 | -7.92039 | 112.71445 | 13023 ft | 298 kts | 182° |
| 2026-04-26 04:47 | -7.94157 | 112.71448 | 12989 ft | 294 kts | 170° |
| 2026-04-26 04:47 | -7.96130 | 112.71833 | 12672 ft | 290 kts | 163° |
| 2026-04-26 04:47 | -7.98135 | 112.72411 | 12194 ft | 291 kts | 161° |
| 2026-04-26 04:47 | -8.00071 | 112.72988 | 11827 ft | 288 kts | 162° |
| 2026-04-26 04:48 | -8.03854 | 112.74010 | 11537 ft | 269 kts | 163° |
| 2026-04-26 04:48 | -8.05718 | 112.74488 | 11089 ft | 272 kts | 163° |
| 2026-04-26 04:48 | -8.07598 | 112.74970 | 10617 ft | 276 kts | 164° |
| 2026-04-26 04:49 | -8.09473 | 112.75449 | 10164 ft | 279 kts | 164° |
| 2026-04-26 04:49 | -8.11418 | 112.75827 | 9695 ft | 283 kts | 174° |
| 2026-04-26 04:49 | -8.13414 | 112.75535 | 9189 ft | 288 kts | 203° |
| 2026-04-26 04:49 | -8.15010 | 112.74296 | 8721 ft | 290 kts | 232° |
| 2026-04-26 04:50 | -8.15913 | 112.72470 | 8247 ft | 290 kts | 255° |
| 2026-04-26 04:50 | -8.16190 | 112.70453 | 7794 ft | 290 kts | 273° |
| 2026-04-26 04:50 | -8.15647 | 112.68502 | 7323 ft | 289 kts | 302° |
| 2026-04-26 04:50 | -8.14260 | 112.67060 | 6845 ft | 286 kts | 328° |
| 2026-04-26 04:51 | -8.12428 | 112.66231 | 6376 ft | 284 kts | 343° |
| 2026-04-26 04:51 | -8.10499 | 112.65709 | 5807 ft | 288 kts | 347° |
| 2026-04-26 04:51 | -8.08507 | 112.65224 | 5154 ft | 292 kts | 347° |
| 2026-04-26 04:51 | -8.06545 | 112.64741 | 4699 ft | 281 kts | 347° |
| 2026-04-26 04:52 | -8.04697 | 112.64274 | 4563 ft | 260 kts | 347° |
| 2026-04-26 04:52 | -8.02994 | 112.63837 | 4558 ft | 236 kts | 347° |
| 2026-04-26 04:52 | -8.01435 | 112.63588 | 4553 ft | 214 kts | 6° |
| 2026-04-26 04:52 | -8.00063 | 112.64079 | 4584 ft | 206 kts | 37° |
| 2026-04-26 04:53 | -7.99093 | 112.65101 | 4584 ft | 205 kts | 56° |
| 2026-04-26 04:53 | -7.98439 | 112.66348 | 4568 ft | 204 kts | 69° |
| 2026-04-26 04:53 | -7.98080 | 112.67738 | 4564 ft | 206 kts | 82° |
| 2026-04-26 04:53 | -7.98075 | 112.69174 | 4590 ft | 205 kts | 97° |
| 2026-04-26 04:54 | -7.98440 | 112.70589 | 4544 ft | 206 kts | 109° |
| 2026-04-26 04:54 | -7.99148 | 112.71832 | 4541 ft | 206 kts | 130° |
| 2026-04-26 04:54 | -8.00258 | 112.72787 | 4552 ft | 207 kts | 145° |
| 2026-04-26 04:54 | -8.01568 | 112.73473 | 4535 ft | 209 kts | 160° |
| 2026-04-26 04:55 | -8.02979 | 112.73844 | 4540 ft | 208 kts | 166° |
| 2026-04-26 04:55 | -8.04435 | 112.74168 | 4530 ft | 209 kts | 165° |
| 2026-04-26 04:55 | -8.05873 | 112.74519 | 4535 ft | 209 kts | 164° |
| 2026-04-26 04:55 | -8.07298 | 112.74885 | 4534 ft | 209 kts | 165° |
| 2026-04-26 04:56 | -8.08641 | 112.75452 | 4523 ft | 208 kts | 137° |
| 2026-04-26 04:56 | -8.09418 | 112.76678 | 4550 ft | 205 kts | 103° |
| 2026-04-26 04:56 | -8.09518 | 112.78049 | 4547 ft | 190 kts | 83° |
| 2026-04-26 04:56 | -8.09244 | 112.79269 | 4541 ft | 175 kts | 65° |
| 2026-04-26 04:57 | -8.08538 | 112.80212 | 4554 ft | 168 kts | 38° |
| 2026-04-26 04:57 | -8.07524 | 112.80803 | 4610 ft | 154 kts | 23° |
| 2026-04-26 04:57 | -8.06531 | 112.81034 | 4519 ft | 139 kts | 1° |
| 2026-04-26 04:57 | -8.05588 | 112.80880 | 4537 ft | 135 kts | 345° |
| 2026-04-26 04:58 | -8.04696 | 112.80499 | 4586 ft | 140 kts | 329° |
| 2026-04-26 04:58 | -8.03986 | 112.79806 | 4592 ft | 141 kts | 306° |
| 2026-04-26 04:58 | -8.03479 | 112.78942 | 4603 ft | 141 kts | 302° |
| 2026-04-26 04:58 | -8.02963 | 112.78097 | 4588 ft | 140 kts | 304° |
| 2026-04-26 04:59 | -8.02436 | 112.77251 | 4585 ft | 140 kts | 304° |
| 2026-04-26 04:59 | -8.01919 | 112.76398 | 4569 ft | 140 kts | 303° |
| 2026-04-26 04:59 | -8.01419 | 112.75569 | 4468 ft | 132 kts | 302° |
| 2026-04-26 04:59 | -8.00993 | 112.74675 | 3853 ft | 145 kts | 296° |
| 2026-04-26 05:00 | -8.00559 | 112.73815 | 3571 ft | 133 kts | 307° |
| 2026-04-26 05:00 | -7.99852 | 112.73218 | 3215 ft | 135 kts | 344° |
| 2026-04-26 05:00 | -7.98947 | 112.73264 | 3011 ft | 123 kts | 23° |
| 2026-04-26 05:00 | -7.98132 | 112.73511 | 2671 ft | 128 kts | 356° |
| 2026-04-26 05:01 | -7.97296 | 112.73137 | 2581 ft | 129 kts | 325° |
| 2026-04-26 05:01 | -7.96625 | 112.72520 | 2505 ft | 137 kts | 317° |
| 2026-04-26 05:01 | -7.95809 | 112.72057 | 2215 ft | 131 kts | 352° |
| 2026-04-26 05:01 | -7.94926 | 112.71913 | 1922 ft | 125 kts | 348° |
| 2026-04-26 05:02 | -7.94068 | 112.71696 | 1826 ft | 124 kts | 348° |
| 2026-04-26 05:02 | -7.93257 | 112.71499 | 1754 ft | 102 kts | 350° |
| 2026-04-26 05:02 | -7.92815 | 112.71401 | 1753 ft | 33 kts | 349° |
| 2026-04-26 05:02 | -7.92606 | 112.71352 | 1752 ft | 25 kts | 345° |
| 2026-04-26 05:03 | -7.92440 | 112.71311 | 1752 ft | 20 kts | 347° |
| 2026-04-26 05:03 | -7.92321 | 112.71285 | 1752 ft | 14 kts | 349° |
| 2026-04-26 05:03 | -7.92239 | 112.71278 | 1752 ft | 1 kts | 321° |
| 2026-04-26 05:03 | -7.92244 | 112.71272 | 1752 ft | 2 kts | 188° |
| 2026-04-26 05:04 | -7.92270 | 112.71275 | 1752 ft | 4 kts | 167° |
| 2026-04-26 05:04 | -7.92301 | 112.71282 | 1752 ft | 4 kts | 164° |
| 2026-04-26 05:04 | -7.92354 | 112.71300 | 1752 ft | 17 kts | 160° |
| 2026-04-26 05:04 | -7.92522 | 112.71336 | 1752 ft | 24 kts | 165° |
| 2026-04-26 05:05 | -7.92693 | 112.71386 | 1752 ft | 25 kts | 165° |
| 2026-04-26 05:05 | -7.92867 | 112.71420 | 1753 ft | 24 kts | 165° |
| 2026-04-26 05:05 | -7.92988 | 112.71450 | 1753 ft | 6 kts | 172° |
| 2026-04-26 05:05 | -7.93020 | 112.71430 | 1753 ft | 5 kts | 236° |
| 2026-04-26 05:06 | -7.93029 | 112.71389 | 1753 ft | 6 kts | 266° |
| 2026-04-26 05:06 | -7.93028 | 112.71343 | 1753 ft | 6 kts | 278° |
| 2026-04-26 05:06 | -7.93018 | 112.71295 | 1754 ft | 7 kts | 283° |
| 2026-04-26 05:06 | -7.93015 | 112.71246 | 1754 ft | 7 kts | 272° |
| 2026-04-26 05:07 | -7.93011 | 112.71193 | 1754 ft | 7 kts | 279° |
| 2026-04-26 05:07 | -7.92994 | 112.71169 | 1754 ft | 2 kts | 311° |
| 2026-04-26 05:07 | -7.92976 | 112.71154 | 1754 ft | 3 kts | 326° |
| 2026-04-26 05:07 | -7.92969 | 112.71131 | 1754 ft | 4 kts | 271° |
| 2026-04-26 05:08 | -7.92968 | 112.71125 | 1755 ft | 0 kts | 275° |